LRSM

Details ICAO LRSM (SUJ)
Name SATU MARE
Region Romania
Timezone Europe/Bucharest (UTC+2.0)
Plans Departing 5
Arriving 8
Stats Elevation 405 ft / 123 m (AMSL)
Location 47.703277° 22.885699°
Runways 1
Magnetic Variation 5.528° E
Sunrise 2017-12-18 06:13:51 UTC / 2017-12-18 08:13:51 Local
Sunset 2017-12-18 14:38:56 UTC / 2017-12-18 16:38:56 Local
Advertisement - Login to hide

Runways

ID Width Length Bearing (true) Bearing (mag) Surface Threshold Offset Overrun Length
01 148 ft / 45 m 8,120 ft / 2,475 m 13.15° 7.62° Concrete 0 ft / 0 m 0 ft / 0 m
19 148 ft / 45 m 8,120 ft / 2,475 m 193.16° 187.63° Concrete 0 ft / 0 m 0 ft / 0 m

Map

Weather


0- 5 10 15 20 25 30 35+ Temperature / ° C

Clouds and Precipitation
Forecast for 2017-12-18 18:00 UTC. Updated 2 hours ago

Ground ~20,000 ft ~40,000 ft Winds

METAR

LRSM 181630Z 36009KT CAVOK 01/M04 Q1021

TAF

Not found

Frequencies

Tower 118.80 MHz TWR
Approach 118.80 MHz APP
Warning: Do not use this data for real-world aviation or navigation. No guarantee of current accuracy is given.